Terminal Aerodrome Forecast
Issued by NWS Tulsa, OK

Home | Current Version | Previous Version | Text Only | Print | Product List | Glossary On
Versions: 1 2 3 4 5 6 7 8 9 10 11 12 13
000
FTUS44 KTSA 261100
TAFFSM
TAF
KFSM 261139Z 2612/2712 VRB03KT P6SM SCT035 SCT045 WS020/21040KT
      TEMPO 2612/2615 BKN035
     FM261500 07006KT P6SM SCT030 OVC040
      TEMPO 2619/2623 6SM -RA OVC030
     FM270000 09007KT 6SM -RA OVC030=

USA.gov is the U.S. government's official web portal to all federal, state and local government web resources and services.